Time;durP1;ratioP1;P1;durP2;ratioP2;P2;SDS_P1;SDS_P2;PMS_P1;PMS_P2;Temp;Humidity;BMP_temperature;BMP_pressure;BME280_temperature;BME280_humidity;BME280_pressure;Samples;Min_cycle;Max_cycle;Signal;HPM_P1;HPM_P2
2023/05/10 05:51:28;;;;;;;23.25;16.00;;;;;;;;;;10450947;27;20394;-80
2023/05/10 05:56:29;;;;;;;14.23;10.77;;;;;;;;;;10450917;27;20075;-80
2023/05/10 06:01:30;;;;;;;;;;;;;;;;;;10476885;22;20096;-81
2023/05/10 06:06:32;;;;;;;19.10;10.90;;;;;;;;;;10500360;28;19989;-80
2023/05/10 06:11:33;;;;;;;6.40;5.18;;;;;;;;;;10449551;28;20095;-80
2023/05/10 06:16:34;;;;;;;8.98;6.80;;;;;;;;;;10459974;28;20089;-80
2023/05/10 06:21:35;;;;;;;18.75;13.35;;;;;;;;;;10441561;28;20032;-79
2023/05/10 06:26:36;;;;;;;24.70;19.58;;;;;;;;;;10439898;28;20018;-79
2023/05/10 06:31:38;;;;;;;13.77;11.35;;;;;;;;;;10438773;28;20022;-79
2023/05/10 06:36:39;;;;;;;20.73;15.88;;;;;;;;;;10438367;28;20438;-79
2023/05/10 06:41:40;;;;;;;8.75;7.35;;;;;;;;;;10452597;28;20017;-79
2023/05/10 06:46:41;;;;;;;16.90;13.63;;;;;;;;;;10435433;28;20021;-79
2023/05/10 06:51:42;;;;;;;20.75;16.60;;;;;;;;;;10437054;28;20029;-79
2023/05/10 06:56:43;;;;;;;21.45;16.83;;;;;;;;;;10437778;28;20033;-79
2023/05/10 07:01:44;;;;;;;18.70;15.82;;;;;;;;;;10434735;28;20089;-80
2023/05/10 07:06:46;;;;;;;10.35;7.55;;;;;;;;;;10431976;28;20079;-81
2023/05/10 07:11:47;;;;;;;9.55;8.05;;;;;;;;;;10424279;28;20022;-81
2023/05/10 07:16:48;;;;;;;12.07;9.57;;;;;;;;;;10415756;28;20025;-82
2023/05/10 07:21:50;;;;;;;14.82;13.07;;;;;;;;;;10411339;28;20091;-82
2023/05/10 07:26:50;;;;;;;24.98;20.42;;;;;;;;;;10412925;28;20053;-81
2023/05/10 07:31:52;;;;;;;16.50;14.48;;;;;;;;;;10413006;28;20142;-82
2023/05/10 07:36:53;;;;;;;21.70;18.70;;;;;;;;;;10419988;28;20075;-83
2023/05/10 07:41:57;;;;;;;20.05;17.40;;;;;;;;;;10429971;28;20029;-83
2023/05/10 07:46:58;;;;;;;25.00;20.63;;;;;;;;;;10412566;28;20426;-82
2023/05/10 07:51:59;;;;;;;28.10;22.60;;;;;;;;;;10414019;28;20029;-82
2023/05/10 07:57:00;;;;;;;28.02;20.73;;;;;;;;;;10413280;28;20025;-82
2023/05/10 08:02:02;;;;;;;26.48;22.77;;;;;;;;;;10412733;28;20040;-83
2023/05/10 08:07:03;;;;;;;25.08;22.15;;;;;;;;;;10405151;28;20495;-82
2023/05/10 08:12:04;;;;;;;27.17;22.83;;;;;;;;;;10448653;28;20041;-83
2023/05/10 08:17:05;;;;;;;27.70;23.60;;;;;;;;;;10437402;28;20132;-83
2023/05/10 08:22:06;;;;;;;24.85;21.45;;;;;;;;;;10412590;28;20026;-83
2023/05/10 08:27:08;;;;;;;24.30;20.77;;;;;;;;;;10414744;28;20029;-82
2023/05/10 08:32:09;;;;;;;22.92;20.52;;;;;;;;;;10425155;28;20025;-83
2023/05/10 08:37:12;;;;;;;21.23;18.83;;;;;;;;;;10416329;28;20112;-83
2023/05/10 08:42:17;;;;;;;28.33;23.92;;;;;;;;;;10410896;28;20116;-83
2023/05/10 08:47:18;;;;;;;24.83;20.02;;;;;;;;;;10413105;28;20051;-82
2023/05/10 08:52:19;;;;;;;25.75;21.15;;;;;;;;;;10431269;28;20076;-82
2023/05/10 08:57:21;;;;;;;23.48;19.40;;;;;;;;;;10430413;28;20541;-82
2023/05/10 09:02:23;;;;;;;16.23;13.88;;;;;;;;;;10411316;28;20468;-83
2023/05/10 09:07:24;;;;;;;16.27;13.55;;;;;;;;;;10410950;28;20029;-82
2023/05/10 09:12:25;;;;;;;22.08;14.60;;;;;;;;;;10410518;28;20061;-83
2023/05/10 09:17:27;;;;;;;18.67;14.57;;;;;;;;;;10414402;28;20128;-83
2023/05/10 09:22:29;;;;;;;15.90;12.23;;;;;;;;;;10414348;28;20037;-84
2023/05/10 09:27:30;;;;;;;16.38;13.43;;;;;;;;;;10415035;28;20060;-84
2023/05/10 09:32:41;;;;;;;18.95;14.60;;;;;;;;;;10415671;28;20075;-84
2023/05/10 09:37:43;;;;;;;17.05;14.38;;;;;;;;;;10418117;28;20041;-83
2023/05/10 09:42:56;;;;;;;18.67;13.35;;;;;;;;;;10440202;28;20026;-82
2023/05/10 09:47:58;;;;;;;17.25;13.35;;;;;;;;;;10421750;28;20067;-82
2023/05/10 09:53:00;;;;;;;15.77;13.23;;;;;;;;;;10429670;28;20086;-83
2023/05/10 09:58:02;;;;;;;17.58;12.90;;;;;;;;;;10412971;28;20100;-84
2023/05/10 10:03:03;;;;;;;17.98;13.05;;;;;;;;;;10412406;28;20038;-84
2023/05/10 10:08:05;;;;;;;15.50;12.05;;;;;;;;;;10410947;28;20120;-81
2023/05/10 10:13:06;;;;;;;15.73;12.77;;;;;;;;;;10408484;28;20025;-82
2023/05/10 10:18:08;;;;;;;17.83;13.68;;;;;;;;;;10409749;28;20025;-82
2023/05/10 10:23:09;;;;;;;18.27;12.65;;;;;;;;;;10410464;28;20037;-82
2023/05/10 10:28:22;;;;;;;17.23;13.52;;;;;;;;;;10410289;28;20392;-81
2023/05/10 10:33:34;;;;;;;16.85;13.85;;;;;;;;;;10427754;28;20022;-81
2023/05/10 10:38:47;;;;;;;17.48;13.27;;;;;;;;;;10418727;28;20025;-82
2023/05/10 10:43:48;;;;;;;16.73;12.60;;;;;;;;;;10418246;28;20092;-81
2023/05/10 10:49:10;;;;;;;13.55;11.23;;;;;;;;;;10417855;28;20128;-83
2023/05/10 10:54:11;;;;;;;14.75;11.63;;;;;;;;;;10419663;28;20384;-84
2023/05/10 10:59:27;;;;;;;18.80;15.05;;;;;;;;;;10420667;28;20060;-84
2023/05/10 11:04:40;;;;;;;20.88;16.08;;;;;;;;;;10431415;28;20048;-84
2023/05/10 11:09:41;;;;;;;21.15;16.15;;;;;;;;;;10426911;28;20092;-85
2023/05/10 11:14:42;;;;;;;18.77;13.68;;;;;;;;;;10423501;28;20029;-85
2023/05/10 11:20:01;;;;;;;14.02;11.30;;;;;;;;;;10425589;28;20045;-85
2023/05/10 11:25:02;;;;;;;17.25;13.48;;;;;;;;;;10423708;28;20515;-85
2023/05/10 11:30:05;;;;;;;14.05;11.07;;;;;;;;;;10428719;28;20037;-86
2023/05/10 11:35:10;;;;;;;15.70;12.18;;;;;;;;;;10428282;28;20468;-85
2023/05/10 11:40:11;;;;;;;14.23;11.95;;;;;;;;;;10423212;28;20036;-86
2023/05/10 11:45:12;;;;;;;15.65;12.23;;;;;;;;;;10441885;28;20025;-86
2023/05/10 11:50:14;;;;;;;13.65;11.38;;;;;;;;;;10427435;28;20033;-84
2023/05/10 11:55:15;;;;;;;14.35;10.73;;;;;;;;;;10426758;28;20059;-84
2023/05/10 12:00:17;;;;;;;13.52;9.95;;;;;;;;;;10439839;28;20017;-85
2023/05/10 12:05:18;;;;;;;10.98;8.48;;;;;;;;;;10332855;22;20047;-79
2023/05/10 12:10:26;;;;;;;15.90;11.00;;;;;;;;;;10312545;28;20171;-80
2023/05/10 12:15:28;;;;;;;14.73;11.77;;;;;;;;;;10337470;28;20041;-80
2023/05/10 12:20:29;;;;;;;13.27;9.48;;;;;;;;;;10368046;28;20503;-78
2023/05/10 12:25:31;;;;;;;24.30;15.43;;;;;;;;;;10346455;28;20480;-79
2023/05/10 12:30:33;;;;;;;8.77;7.50;;;;;;;;;;10341120;28;20136;-80
2023/05/10 12:35:34;;;;;;;12.00;9.52;;;;;;;;;;10344255;28;20054;-80
2023/05/10 12:40:35;;;;;;;9.23;7.70;;;;;;;;;;10338070;28;20117;-78
2023/05/10 12:45:36;;;;;;;14.63;10.93;;;;;;;;;;10337730;28;20022;-79
2023/05/10 12:50:37;;;;;;;18.10;13.07;;;;;;;;;;10335217;28;20077;-80
2023/05/10 12:55:38;;;;;;;12.57;9.55;;;;;;;;;;10332950;28;20474;-78
2023/05/10 13:00:39;;;;;;;13.73;12.32;;;;;;;;;;10332413;28;20038;-81
2023/05/10 13:05:40;;;;;;;14.45;12.15;;;;;;;;;;10332377;28;20049;-79
2023/05/10 13:10:41;;;;;;;11.85;10.07;;;;;;;;;;10332826;28;20489;-79
2023/05/10 13:15:42;;;;;;;13.75;10.20;;;;;;;;;;10334929;28;20035;-78
2023/05/10 13:20:44;;;;;;;16.45;12.23;;;;;;;;;;10333348;28;20027;-80
2023/05/10 13:25:45;;;;;;;15.35;13.00;;;;;;;;;;10336182;28;20480;-79
2023/05/10 13:30:46;;;;;;;11.43;10.00;;;;;;;;;;10335783;28;20076;-79
2023/05/10 13:35:47;;;;;;;10.93;8.80;;;;;;;;;;10332896;28;20038;-79
2023/05/10 13:40:52;;;;;;;8.18;7.32;;;;;;;;;;10335723;28;20159;-79
2023/05/10 13:45:53;;;;;;;7.75;6.40;;;;;;;;;;10332756;28;20348;-80
2023/05/10 13:50:54;;;;;;;8.02;6.07;;;;;;;;;;10332198;28;20060;-79
2023/05/10 13:55:55;;;;;;;12.88;8.90;;;;;;;;;;10331832;28;20027;-80
2023/05/10 14:00:56;;;;;;;6.35;5.72;;;;;;;;;;10331618;28;20117;-78
2023/05/10 14:05:57;;;;;;;8.80;5.70;;;;;;;;;;10333006;28;20045;-78
2023/05/10 14:10:59;;;;;;;6.82;5.45;;;;;;;;;;10339063;28;20117;-80
2023/05/10 14:16:00;;;;;;;6.45;4.65;;;;;;;;;;10347776;28;20030;-80
2023/05/10 14:21:02;;;;;;;6.85;5.40;;;;;;;;;;10339197;28;20034;-80
2023/05/10 14:26:03;;;;;;;5.00;4.50;;;;;;;;;;10339204;28;20037;-80
2023/05/10 14:31:05;;;;;;;5.95;4.85;;;;;;;;;;10341690;28;20033;-80
2023/05/10 14:36:07;;;;;;;6.57;5.53;;;;;;;;;;10342029;28;20135;-79
2023/05/10 14:41:08;;;;;;;9.77;7.30;;;;;;;;;;10339254;28;20053;-80
2023/05/10 14:46:09;;;;;;;6.45;4.68;;;;;;;;;;10338111;28;20210;-78
2023/05/10 14:51:10;;;;;;;4.97;4.47;;;;;;;;;;10339414;28;20490;-79
2023/05/10 14:56:11;;;;;;;10.63;8.15;;;;;;;;;;10338713;28;20034;-78
2023/05/10 15:01:12;;;;;;;7.88;5.35;;;;;;;;;;10339382;28;20559;-80
2023/05/10 15:06:18;;;;;;;6.63;5.47;;;;;;;;;;10338620;28;20121;-80
2023/05/10 15:11:20;;;;;;;17.02;14.35;;;;;;;;;;10338129;28;20023;-79
2023/05/10 15:16:21;;;;;;;11.02;9.27;;;;;;;;;;10337300;28;20053;-80
2023/05/10 15:21:22;;;;;;;8.13;6.65;;;;;;;;;;10337717;28;20422;-80
2023/05/10 15:26:26;;;;;;;7.90;5.75;;;;;;;;;;10337560;28;20024;-80
2023/05/10 15:31:27;;;;;;;6.25;4.43;;;;;;;;;;10338081;28;20069;-80
2023/05/10 15:36:28;;;;;;;5.88;4.65;;;;;;;;;;10336877;28;20471;-81
2023/05/10 15:41:29;;;;;;;7.70;5.90;;;;;;;;;;10337176;28;20030;-80
2023/05/10 15:46:31;;;;;;;7.10;5.43;;;;;;;;;;10337786;28;20219;-79
2023/05/10 15:51:34;;;;;;;5.25;4.53;;;;;;;;;;10339454;28;20031;-81
2023/05/10 15:56:37;;;;;;;5.72;4.53;;;;;;;;;;10338248;28;20030;-81
2023/05/10 16:01:38;;;;;;;6.03;4.20;;;;;;;;;;10338923;28;20034;-82
2023/05/10 16:06:39;;;;;;;7.40;5.03;;;;;;;;;;10339481;28;20030;-83
2023/05/10 16:11:42;;;;;;;7.82;4.50;;;;;;;;;;10338197;28;20022;-80
2023/05/10 16:16:43;;;;;;;5.18;4.65;;;;;;;;;;10337743;28;20026;-77
2023/05/10 16:21:44;;;;;;;5.35;3.28;;;;;;;;;;10339496;28;20070;-80
2023/05/10 16:26:45;;;;;;;5.28;3.70;;;;;;;;;;10336657;28;20026;-79
2023/05/10 16:31:46;;;;;;;4.22;2.92;;;;;;;;;;10334885;28;20079;-80
2023/05/10 16:36:47;;;;;;;6.72;4.90;;;;;;;;;;10336007;28;20440;-80
2023/05/10 16:41:48;;;;;;;3.78;3.05;;;;;;;;;;10338049;28;20065;-80
2023/05/10 16:46:50;;;;;;;8.18;7.22;;;;;;;;;;10335778;28;20129;-80
2023/05/10 16:51:51;;;;;;;9.20;7.72;;;;;;;;;;10336467;28;20511;-80
2023/05/10 16:56:52;;;;;;;5.28;4.53;;;;;;;;;;10338300;28;20117;-80
2023/05/10 17:01:53;;;;;;;4.60;4.18;;;;;;;;;;10340736;28;20034;-80
2023/05/10 17:06:54;;;;;;;6.80;5.60;;;;;;;;;;10333024;28;20037;-80
2023/05/10 17:11:55;;;;;;;6.72;5.85;;;;;;;;;;10333379;28;20349;-80
2023/05/10 17:16:56;;;;;;;5.82;5.22;;;;;;;;;;10332831;28;20023;-81
2023/05/10 17:21:57;;;;;;;4.45;3.60;;;;;;;;;;10334183;28;20025;-80
2023/05/10 17:26:59;;;;;;;7.05;4.82;;;;;;;;;;10333923;28;20099;-82
2023/05/10 17:32:00;;;;;;;6.95;4.80;;;;;;;;;;10334135;28;20075;-81
2023/05/10 17:37:01;;;;;;;7.40;4.90;;;;;;;;;;10333818;28;20014;-80
2023/05/10 17:42:02;;;;;;;6.78;5.45;;;;;;;;;;10333894;28;20062;-80
2023/05/10 17:47:05;;;;;;;8.00;5.80;;;;;;;;;;10333923;28;20023;-81
2023/05/10 17:52:07;;;;;;;6.80;5.43;;;;;;;;;;10335388;28;20121;-80
2023/05/10 17:57:08;;;;;;;4.95;4.07;;;;;;;;;;10347386;28;20026;-79
2023/05/10 18:02:09;;;;;;;5.90;4.30;;;;;;;;;;10397141;22;20048;-81
2023/05/10 18:07:10;;;;;;;4.38;3.88;;;;;;;;;;10490873;28;20094;-83
2023/05/10 18:12:11;;;;;;;5.38;4.78;;;;;;;;;;10490289;28;20107;-83
2023/05/10 18:17:12;;;;;;;4.78;4.22;;;;;;;;;;10494280;28;20059;-85
2023/05/10 18:22:13;;;;;;;6.18;5.15;;;;;;;;;;10511014;28;20044;-85
2023/05/10 18:27:14;;;;;;;7.32;5.65;;;;;;;;;;10493917;28;20033;-85
2023/05/10 18:32:16;;;;;;;5.03;4.28;;;;;;;;;;10485167;28;20454;-84
2023/05/10 18:37:17;;;;;;;5.32;4.25;;;;;;;;;;10484654;28;20458;-85
2023/05/10 18:42:19;;;;;;;5.07;4.10;;;;;;;;;;10484478;28;20030;-85
2023/05/10 18:47:20;;;;;;;5.13;3.65;;;;;;;;;;10485798;28;20035;-85
2023/05/10 18:52:21;;;;;;;5.18;4.55;;;;;;;;;;10502585;28;20395;-85
2023/05/10 18:57:22;;;;;;;4.90;4.18;;;;;;;;;;10490149;28;20119;-85
2023/05/10 19:02:25;;;;;;;6.07;4.30;;;;;;;;;;10494284;28;20036;-85
2023/05/10 19:07:26;;;;;;;4.75;3.83;;;;;;;;;;10495036;28;20036;-85
2023/05/10 19:12:32;;;;;;;4.25;3.60;;;;;;;;;;10494174;28;20032;-85
